Time;durP1;ratioP1;P1;durP2;ratioP2;P2;SDS_P1;SDS_P2;PMS_P1;PMS_P2;Temp;Humidity;BMP_temperature;BMP_pressure;BME280_temperature;BME280_humidity;BME280_pressure;Samples;Min_cycle;Max_cycle;Signal;HPM_P1;HPM_P2
2022/03/10 00:01:05;;;;;;;43.58;18.80;;;;;;;;;;5034593;28;20103;-73
2022/03/10 00:03:56;;;;;;;36.75;19.42;;;;;;;;;;5032810;28;20512;-72
2022/03/10 00:06:24;;;;;;;36.85;17.50;;;;;;;;;;5033077;28;20057;-72
2022/03/10 00:08:51;;;;;;;40.05;18.85;;;;;;;;;;5032036;28;20051;-72
2022/03/10 00:11:19;;;;;;;40.35;19.80;;;;;;;;;;5032983;28;20072;-72
2022/03/10 00:13:48;;;;;;;37.63;18.58;;;;;;;;;;5034167;28;20049;-73
2022/03/10 00:16:16;;;;;;;41.30;19.73;;;;;;;;;;5032483;28;20477;-74
2022/03/10 00:18:44;;;;;;;40.58;20.15;;;;;;;;;;5031615;28;20474;-73
2022/03/10 00:21:11;;;;;;;47.45;20.00;;;;;;;;;;5031199;28;20144;-76
2022/03/10 00:23:39;;;;;;;39.90;19.38;;;;;;;;;;5035366;28;20409;-75
2022/03/10 00:26:06;;;;;;;41.13;20.20;;;;;;;;;;5031691;28;20174;-73
2022/03/10 00:28:34;;;;;;;41.63;19.92;;;;;;;;;;5036514;28;20036;-74
2022/03/10 00:31:03;;;;;;;41.75;18.98;;;;;;;;;;5034329;28;20052;-72
2022/03/10 00:33:31;;;;;;;42.03;19.83;;;;;;;;;;5033267;28;20072;-73
2022/03/10 00:35:58;;;;;;;37.17;18.10;;;;;;;;;;5038250;28;20084;-73
2022/03/10 00:38:26;;;;;;;40.65;18.85;;;;;;;;;;5035996;28;20049;-74
2022/03/10 00:40:54;;;;;;;41.70;20.35;;;;;;;;;;5036536;28;20083;-74
2022/03/10 00:43:22;;;;;;;42.10;18.13;;;;;;;;;;5040837;28;20088;-74
2022/03/10 00:45:50;;;;;;;41.33;19.23;;;;;;;;;;5041002;28;20245;-74
2022/03/10 00:48:19;;;;;;;43.53;20.13;;;;;;;;;;5040393;28;20136;-74
2022/03/10 00:51:10;;;;;;;43.25;18.15;;;;;;;;;;5042600;28;20055;-74
2022/03/10 00:53:38;;;;;;;40.85;18.20;;;;;;;;;;5034603;28;20136;-73
2022/03/10 00:56:06;;;;;;;39.35;18.02;;;;;;;;;;5036714;28;20067;-73
2022/03/10 00:58:37;;;;;;;34.67;18.63;;;;;;;;;;5039544;28;20051;-71
2022/03/10 01:01:05;;;;;;;43.83;19.27;;;;;;;;;;5034531;28;20052;-72
2022/03/10 01:03:38;;;;;;;41.13;19.27;;;;;;;;;;5034998;28;20075;-72
2022/03/10 01:06:06;;;;;;;41.00;19.50;;;;;;;;;;5037085;28;20099;-72
2022/03/10 01:08:34;;;;;;;39.15;18.58;;;;;;;;;;5036284;28;20045;-73
2022/03/10 01:11:01;;;;;;;42.22;20.00;;;;;;;;;;5034995;28;20072;-72
2022/03/10 01:13:29;;;;;;;40.85;18.35;;;;;;;;;;5035402;28;20452;-72
2022/03/10 01:15:57;;;;;;;44.72;20.65;;;;;;;;;;5036167;28;20045;-72
2022/03/10 01:18:25;;;;;;;39.83;17.92;;;;;;;;;;5037188;28;20080;-72
2022/03/10 01:20:55;;;;;;;40.10;18.90;;;;;;;;;;5035839;28;20541;-72
2022/03/10 01:23:22;;;;;;;42.92;18.92;;;;;;;;;;5040895;28;20080;-72
2022/03/10 01:25:51;;;;;;;40.30;19.35;;;;;;;;;;5035190;28;20049;-73
2022/03/10 01:28:18;;;;;;;40.05;20.40;;;;;;;;;;5037218;28;20040;-72
2022/03/10 01:30:46;;;;;;;34.83;18.00;;;;;;;;;;5037292;28;20061;-72
2022/03/10 01:33:13;;;;;;;39.35;18.80;;;;;;;;;;5035616;28;20100;-72
2022/03/10 01:35:41;;;;;;;38.30;18.10;;;;;;;;;;5036549;28;20059;-74
2022/03/10 01:38:10;;;;;;;41.13;18.83;;;;;;;;;;5031672;28;20459;-75
2022/03/10 01:40:40;;;;;;;40.20;19.90;;;;;;;;;;5038215;28;20053;-72
2022/03/10 01:43:08;;;;;;;34.65;18.30;;;;;;;;;;5038441;28;20048;-75
2022/03/10 01:45:39;;;;;;;48.42;22.05;;;;;;;;;;5038312;28;20059;-72
2022/03/10 01:48:07;;;;;;;38.40;19.52;;;;;;;;;;5036558;28;20068;-74
2022/03/10 01:50:58;;;;;;;43.63;18.95;;;;;;;;;;5035396;28;20060;-73
2022/03/10 01:53:27;;;;;;;39.65;20.10;;;;;;;;;;5031675;28;20103;-73
2022/03/10 01:55:55;;;;;;;41.58;19.77;;;;;;;;;;5036407;28;20057;-72
2022/03/10 01:58:23;;;;;;;44.70;19.90;;;;;;;;;;5037722;28;20072;-72
2022/03/10 02:00:54;;;;;;;37.83;18.48;;;;;;;;;;5035896;28;20140;-73
2022/03/10 02:03:22;;;;;;;40.70;20.30;;;;;;;;;;5039516;28;20098;-73
2022/03/10 02:05:50;;;;;;;43.28;19.42;;;;;;;;;;5038054;28;20124;-73
2022/03/10 02:11:07;;;;;;;46.15;20.23;;;;;;;;;;5036268;28;20493;-73
2022/03/10 02:13:35;;;;;;;41.15;18.73;;;;;;;;;;5037920;28;20056;-74
2022/03/10 02:18:48;;;;;;;38.70;19.08;;;;;;;;;;5038312;28;20045;-74
2022/03/10 02:21:16;;;;;;;45.33;21.25;;;;;;;;;;5032535;28;20057;-74
2022/03/10 02:23:45;;;;;;;41.30;19.58;;;;;;;;;;5040090;28;20045;-74
2022/03/10 02:26:15;;;;;;;43.50;19.73;;;;;;;;;;5036320;28;20522;-75
2022/03/10 02:28:43;;;;;;;47.88;22.73;;;;;;;;;;5035587;28;20140;-74
2022/03/10 02:31:11;;;;;;;42.17;20.70;;;;;;;;;;5033795;28;20154;-74
2022/03/10 02:33:39;;;;;;;43.70;19.77;;;;;;;;;;5033504;28;20240;-74
2022/03/10 02:36:07;;;;;;;40.88;18.80;;;;;;;;;;5037962;28;20107;-74
2022/03/10 02:38:35;;;;;;;47.05;21.05;;;;;;;;;;5034639;28;20748;-74
2022/03/10 02:41:04;;;;;;;45.63;21.00;;;;;;;;;;5035253;28;20596;-73
2022/03/10 02:43:31;;;;;;;40.33;18.40;;;;;;;;;;5033750;28;20138;-73
2022/03/10 02:45:59;;;;;;;41.50;19.92;;;;;;;;;;5035932;28;20057;-73
2022/03/10 02:48:27;;;;;;;37.63;18.05;;;;;;;;;;5034369;28;20457;-73
2022/03/10 02:50:55;;;;;;;44.60;20.42;;;;;;;;;;5032433;28;20118;-74
2022/03/10 02:53:25;;;;;;;41.58;19.00;;;;;;;;;;5033014;28;20044;-73
2022/03/10 02:55:53;;;;;;;40.65;19.40;;;;;;;;;;5034503;28;20060;-72
2022/03/10 02:58:22;;;;;;;42.15;19.60;;;;;;;;;;5035169;28;20537;-72
2022/03/10 03:00:50;;;;;;;40.35;19.67;;;;;;;;;;5032501;28;20041;-72
2022/03/10 03:03:18;;;;;;;34.33;17.65;;;;;;;;;;5032680;28;20041;-72
2022/03/10 03:05:46;;;;;;;40.25;18.63;;;;;;;;;;5036888;28;20045;-73
2022/03/10 03:08:14;;;;;;;44.70;19.73;;;;;;;;;;5032983;28;20063;-73
2022/03/10 03:10:46;;;;;;;45.20;19.58;;;;;;;;;;5035057;28;20045;-72
2022/03/10 03:13:15;;;;;;;46.20;19.35;;;;;;;;;;5035331;28;20257;-74
2022/03/10 03:15:45;;;;;;;42.40;20.33;;;;;;;;;;5035845;28;20048;-74
2022/03/10 03:18:13;;;;;;;40.03;18.00;;;;;;;;;;5031606;28;20402;-74
2022/03/10 03:20:41;;;;;;;42.40;19.35;;;;;;;;;;5035981;28;20067;-73
2022/03/10 03:23:09;;;;;;;39.83;18.95;;;;;;;;;;5036217;28;20049;-74
2022/03/10 03:25:36;;;;;;;41.35;18.38;;;;;;;;;;5032688;28;20044;-73
2022/03/10 03:28:04;;;;;;;41.60;19.80;;;;;;;;;;5034324;28;20055;-74
2022/03/10 03:30:32;;;;;;;46.53;20.83;;;;;;;;;;5032608;28;20068;-73
2022/03/10 03:33:01;;;;;;;47.10;20.92;;;;;;;;;;5034353;28;20520;-73
2022/03/10 03:35:31;;;;;;;39.42;20.20;;;;;;;;;;5034523;28;20388;-73
2022/03/10 03:37:58;;;;;;;44.90;20.70;;;;;;;;;;5031162;28;20049;-73
2022/03/10 03:40:26;;;;;;;45.13;20.17;;;;;;;;;;5032265;28;20127;-73
2022/03/10 03:42:54;;;;;;;43.58;22.15;;;;;;;;;;5032600;28;20052;-73
2022/03/10 03:45:22;;;;;;;37.60;17.67;;;;;;;;;;5036023;28;20132;-73
2022/03/10 03:47:51;;;;;;;41.95;19.90;;;;;;;;;;5035238;28;20045;-72
2022/03/10 03:50:20;;;;;;;50.22;20.15;;;;;;;;;;5033858;28;20517;-72
2022/03/10 03:52:47;;;;;;;46.95;20.80;;;;;;;;;;5029439;28;20041;-72
2022/03/10 03:55:15;;;;;;;42.13;19.42;;;;;;;;;;5032870;28;20164;-73
2022/03/10 03:57:43;;;;;;;45.38;19.77;;;;;;;;;;5034153;28;20096;-72
2022/03/10 04:00:12;;;;;;;42.47;19.23;;;;;;;;;;5034351;28;20045;-72
2022/03/10 04:02:40;;;;;;;44.53;19.67;;;;;;;;;;5034846;28;20048;-72
2022/03/10 04:05:08;;;;;;;40.00;19.70;;;;;;;;;;5034722;28;20419;-72
2022/03/10 04:07:38;;;;;;;40.20;19.90;;;;;;;;;;5034832;28;20086;-73
2022/03/10 04:10:07;;;;;;;48.63;21.52;;;;;;;;;;5033930;28;20049;-73
2022/03/10 04:12:35;;;;;;;47.47;19.23;;;;;;;;;;5031738;28;20155;-73
2022/03/10 04:15:03;;;;;;;45.13;20.90;;;;;;;;;;5036997;28;20513;-75
2022/03/10 04:17:31;;;;;;;39.97;20.13;;;;;;;;;;5036038;28;20053;-72
2022/03/10 04:19:59;;;;;;;47.65;20.98;;;;;;;;;;5034316;28;20068;-72
2022/03/10 04:22:26;;;;;;;43.47;20.92;;;;;;;;;;5032622;28;20106;-73
2022/03/10 04:24:55;;;;;;;44.00;18.85;;;;;;;;;;5034003;28;20121;-73
2022/03/10 04:27:23;;;;;;;40.00;19.33;;;;;;;;;;5034987;28;20243;-73
2022/03/10 04:29:51;;;;;;;42.33;19.02;;;;;;;;;;5032982;28;20050;-73
2022/03/10 04:32:21;;;;;;;42.67;20.63;;;;;;;;;;5035163;28;20091;-73
2022/03/10 04:35:14;;;;;;;46.35;19.95;;;;;;;;;;5030994;28;20182;-74
2022/03/10 04:37:42;;;;;;;42.67;19.67;;;;;;;;;;5029861;28;20144;-74
2022/03/10 04:40:12;;;;;;;41.50;19.50;;;;;;;;;;5033585;28;20076;-74
2022/03/10 04:42:40;;;;;;;40.45;20.23;;;;;;;;;;5036291;28;20049;-74
2022/03/10 04:45:08;;;;;;;45.15;20.75;;;;;;;;;;5030744;28;20443;-74
2022/03/10 04:47:36;;;;;;;44.13;21.00;;;;;;;;;;5030555;28;20168;-73
2022/03/10 04:50:05;;;;;;;40.03;20.10;;;;;;;;;;5029595;28;20093;-74
2022/03/10 04:52:33;;;;;;;39.00;19.13;;;;;;;;;;5030356;28;20192;-74
2022/03/10 04:55:01;;;;;;;45.00;21.33;;;;;;;;;;5032558;28;20056;-73
2022/03/10 04:57:30;;;;;;;45.22;18.80;;;;;;;;;;5030512;28;20057;-73
2022/03/10 04:59:58;;;;;;;38.47;18.45;;;;;;;;;;5031938;28;20140;-74
2022/03/10 05:02:25;;;;;;;39.97;19.15;;;;;;;;;;5031536;28;20691;-73
2022/03/10 05:04:53;;;;;;;40.95;18.33;;;;;;;;;;5032821;28;20052;-73
2022/03/10 05:07:21;;;;;;;41.55;20.38;;;;;;;;;;5033290;28;20236;-73
2022/03/10 05:09:49;;;;;;;49.05;22.33;;;;;;;;;;5032992;28;20468;-73
2022/03/10 05:12:16;;;;;;;44.80;21.02;;;;;;;;;;5034989;28;20057;-74
2022/03/10 05:15:10;;;;;;;37.25;19.67;;;;;;;;;;5031856;28;20056;-74
2022/03/10 05:17:38;;;;;;;54.42;22.58;;;;;;;;;;5036177;28;20052;-74
2022/03/10 05:20:09;;;;;;;44.10;20.50;;;;;;;;;;5034519;28;20653;-73
2022/03/10 05:22:45;;;;;;;45.95;20.63;;;;;;;;;;5037429;28;20135;-74
2022/03/10 05:25:13;;;;;;;50.17;20.98;;;;;;;;;;5037528;28;20064;-73
2022/03/10 05:27:41;;;;;;;38.72;20.00;;;;;;;;;;5036477;28;20353;-73
2022/03/10 05:30:11;;;;;;;44.88;19.05;;;;;;;;;;5034927;28;20525;-73
2022/03/10 05:32:39;;;;;;;40.38;20.30;;;;;;;;;;5034042;28;20481;-73
2022/03/10 05:35:07;;;;;;;48.20;21.63;;;;;;;;;;5037958;28;20132;-73
2022/03/10 05:37:36;;;;;;;44.28;21.00;;;;;;;;;;5034605;28;20102;-73
2022/03/10 05:40:05;;;;;;;46.28;21.55;;;;;;;;;;5035530;28;20556;-73
2022/03/10 05:42:33;;;;;;;46.65;21.27;;;;;;;;;;5036379;28;20052;-73
2022/03/10 05:45:02;;;;;;;47.15;21.13;;;;;;;;;;5034477;28;20405;-73
2022/03/10 05:47:31;;;;;;;42.10;20.63;;;;;;;;;;5036972;28;20556;-73
2022/03/10 05:49:59;;;;;;;38.47;19.65;;;;;;;;;;5036384;28;20057;-73
2022/03/10 05:52:26;;;;;;;48.50;19.23;;;;;;;;;;5032095;28;20725;-73
2022/03/10 05:54:54;;;;;;;44.55;20.73;;;;;;;;;;5038096;28;20049;-75
2022/03/10 05:57:22;;;;;;;44.38;20.75;;;;;;;;;;5038445;28;20160;-74
2022/03/10 05:59:51;;;;;;;44.55;21.48;;;;;;;;;;5036511;28;20136;-74
2022/03/10 06:02:20;;;;;;;42.05;19.67;;;;;;;;;;5033647;28;20056;-73
2022/03/10 06:04:50;;;;;;;46.58;19.92;;;;;;;;;;5036506;28;20250;-73
2022/03/10 06:07:18;;;;;;;43.15;18.95;;;;;;;;;;5032430;28;20518;-73
2022/03/10 06:09:52;;;;;;;40.40;19.55;;;;;;;;;;5036982;28;20045;-73
2022/03/10 06:12:22;;;;;;;51.33;22.23;;;;;;;;;;5035493;28;20116;-72
2022/03/10 06:14:53;;;;;;;40.35;18.75;;;;;;;;;;5036090;28;20189;-73
2022/03/10 06:17:21;;;;;;;39.70;19.77;;;;;;;;;;5032206;28;20069;-74
2022/03/10 06:19:51;;;;;;;41.35;20.05;;;;;;;;;;5034857;28;20041;-73
2022/03/10 06:22:19;;;;;;;45.67;20.75;;;;;;;;;;5037935;28;20087;-75
2022/03/10 06:24:47;;;;;;;43.13;19.27;;;;;;;;;;5040306;28;20051;-76
2022/03/10 06:27:15;;;;;;;40.90;19.13;;;;;;;;;;5035961;28;20423;-74
2022/03/10 06:29:43;;;;;;;46.20;21.05;;;;;;;;;;5039856;28;20053;-75
2022/03/10 06:32:12;;;;;;;41.38;20.33;;;;;;;;;;5036528;28;20049;-75
2022/03/10 06:34:40;;;;;;;51.97;21.02;;;;;;;;;;5033633;28;20052;-73
2022/03/10 06:37:09;;;;;;;43.85;20.10;;;;;;;;;;5034639;28;20444;-72
2022/03/10 06:40:02;;;;;;;45.28;19.73;;;;;;;;;;5032053;28;20065;-73
2022/03/10 06:42:30;;;;;;;47.00;20.67;;;;;;;;;;5035305;28;20052;-74
2022/03/10 06:44:58;;;;;;;45.08;20.13;;;;;;;;;;5038975;28;20576;-73
2022/03/10 06:47:26;;;;;;;46.17;22.25;;;;;;;;;;5033278;28;20057;-73
2022/03/10 06:49:54;;;;;;;45.90;21.02;;;;;;;;;;5037152;28;20059;-75
2022/03/10 06:52:23;;;;;;;35.58;19.58;;;;;;;;;;5033847;28;20133;-71
2022/03/10 06:54:52;;;;;;;44.83;20.48;;;;;;;;;;5036144;28;20046;-75
2022/03/10 06:57:22;;;;;;;41.42;20.13;;;;;;;;;;5039454;28;20085;-74
2022/03/10 06:59:50;;;;;;;44.78;21.73;;;;;;;;;;5032718;28;20045;-73
2022/03/10 07:02:18;;;;;;;48.28;21.33;;;;;;;;;;5037943;28;20041;-75
2022/03/10 07:04:46;;;;;;;45.05;20.35;;;;;;;;;;5032850;28;20049;-73
2022/03/10 07:07:14;;;;;;;49.03;22.38;;;;;;;;;;5032776;28;20142;-74
2022/03/10 07:09:48;;;;;;;44.78;20.88;;;;;;;;;;5032733;28;20179;-75
2022/03/10 07:12:17;;;;;;;38.75;20.50;;;;;;;;;;5034111;28;20045;-73
2022/03/10 07:15:10;;;;;;;46.05;20.98;;;;;;;;;;5034478;28;20055;-74
2022/03/10 07:17:39;;;;;;;42.65;20.23;;;;;;;;;;5035655;28;20513;-75
2022/03/10 07:20:08;;;;;;;47.53;22.38;;;;;;;;;;5037651;28;20214;-74
2022/03/10 07:22:36;;;;;;;50.28;23.98;;;;;;;;;;5035988;28;20049;-74
2022/03/10 07:25:08;;;;;;;50.05;22.85;;;;;;;;;;5033518;28;20102;-74
2022/03/10 07:27:37;;;;;;;46.65;22.50;;;;;;;;;;5035861;28;20045;-73
2022/03/10 07:30:05;;;;;;;42.85;21.75;;;;;;;;;;5032035;28;20056;-74
2022/03/10 07:32:34;;;;;;;46.42;22.15;;;;;;;;;;5031896;28;20048;-74
2022/03/10 07:35:02;;;;;;;44.22;21.52;;;;;;;;;;5038136;28;20057;-75
2022/03/10 07:37:31;;;;;;;46.42;22.67;;;;;;;;;;5035536;28;20053;-74
2022/03/10 07:39:59;;;;;;;46.33;22.55;;;;;;;;;;5034932;28;20061;-74
2022/03/10 07:42:28;;;;;;;53.20;23.23;;;;;;;;;;5030954;28;20071;-74
2022/03/10 07:45:00;;;;;;;44.23;22.63;;;;;;;;;;5033768;28;20139;-74
2022/03/10 07:47:28;;;;;;;49.30;22.85;;;;;;;;;;5033669;28;20160;-74
2022/03/10 07:49:57;;;;;;;56.42;23.55;;;;;;;;;;5036062;28;20053;-74
2022/03/10 07:52:25;;;;;;;47.67;21.88;;;;;;;;;;5031925;28;20153;-74
2022/03/10 07:54:52;;;;;;;48.58;24.02;;;;;;;;;;5035913;28;20497;-73
2022/03/10 07:57:20;;;;;;;55.17;23.45;;;;;;;;;;5038478;28;20057;-74
2022/03/10 07:59:50;;;;;;;48.00;22.63;;;;;;;;;;5034177;28;20048;-74
2022/03/10 08:02:21;;;;;;;50.25;21.90;;;;;;;;;;5034923;28;20071;-75
2022/03/10 08:04:49;;;;;;;45.35;20.90;;;;;;;;;;5032019;28;20132;-73
2022/03/10 08:07:19;;;;;;;45.90;23.33;;;;;;;;;;5036658;28;20493;-74
2022/03/10 08:13:35;;;;;;;58.33;24.25;;;;;;;;;;5031435;28;20059;-74
2022/03/10 08:16:27;;;;;;;49.72;23.38;;;;;;;;;;5039666;28;20049;-74
2022/03/10 08:19:16;;;;;;;47.80;22.15;;;;;;;;;;5049496;28;20118;-75
2022/03/10 08:22:28;;;;;;;56.08;25.13;;;;;;;;;;4985819;28;20054;-74
2022/03/10 08:24:56;;;;;;;55.15;24.70;;;;;;;;;;4974744;28;20065;-74
2022/03/10 08:27:25;;;;;;;54.58;24.08;;;;;;;;;;5017346;28;20111;-74
2022/03/10 08:29:53;;;;;;;57.53;24.23;;;;;;;;;;5037094;28;20060;-74
2022/03/10 08:32:25;;;;;;;54.20;25.33;;;;;;;;;;5032382;28;20051;-73
2022/03/10 08:34:54;;;;;;;48.30;23.90;;;;;;;;;;5030793;28;20107;-74
2022/03/10 08:37:24;;;;;;;52.90;25.65;;;;;;;;;;5029324;28;20049;-74
2022/03/10 08:39:52;;;;;;;57.22;24.52;;;;;;;;;;5035225;28;20045;-74
2022/03/10 08:42:19;;;;;;;59.85;25.27;;;;;;;;;;5033970;28;20077;-73
2022/03/10 08:44:47;;;;;;;51.92;25.73;;;;;;;;;;5031944;28;20049;-74
2022/03/10 08:47:18;;;;;;;57.53;25.63;;;;;;;;;;5033881;28;20045;-74
2022/03/10 08:49:46;;;;;;;61.38;25.27;;;;;;;;;;5037674;28;20049;-74
2022/03/10 08:52:15;;;;;;;58.55;25.45;;;;;;;;;;5035153;28;20485;-74
2022/03/10 08:54:45;;;;;;;58.13;26.98;;;;;;;;;;5033131;28;20049;-74
2022/03/10 08:57:13;;;;;;;55.97;25.27;;;;;;;;;;5033706;28;20059;-74
2022/03/10 08:59:41;;;;;;;59.75;27.05;;;;;;;;;;5035317;28;20132;-73
2022/03/10 09:02:09;;;;;;;68.10;27.90;;;;;;;;;;5038504;28;20049;-74
2022/03/10 09:04:38;;;;;;;60.75;26.80;;;;;;;;;;5042127;28;20384;-74
2022/03/10 09:07:06;;;;;;;68.13;27.27;;;;;;;;;;5036222;28;20125;-74
2022/03/10 09:09:59;;;;;;;57.05;25.67;;;;;;;;;;5034114;28;20079;-74
2022/03/10 09:12:28;;;;;;;62.95;26.85;;;;;;;;;;5037474;28;20053;-74
2022/03/10 09:14:55;;;;;;;59.78;26.80;;;;;;;;;;5033197;28;20055;-74
2022/03/10 09:17:23;;;;;;;72.68;29.05;;;;;;;;;;5035940;28;20231;-74
2022/03/10 09:19:52;;;;;;;64.20;27.23;;;;;;;;;;5035670;28;20066;-74
2022/03/10 09:22:20;;;;;;;61.95;28.58;;;;;;;;;;5030791;28;20052;-74
2022/03/10 09:24:48;;;;;;;74.90;30.30;;;;;;;;;;5033120;28;20068;-73
2022/03/10 09:27:17;;;;;;;66.07;28.58;;;;;;;;;;5037943;28;20049;-74
2022/03/10 09:29:45;;;;;;;74.93;29.25;;;;;;;;;;5033135;28;20165;-74
2022/03/10 09:32:12;;;;;;;68.22;29.63;;;;;;;;;;5032904;28;20469;-74
2022/03/10 09:34:40;;;;;;;69.00;28.98;;;;;;;;;;5039150;28;20488;-74
2022/03/10 09:37:08;;;;;;;80.18;32.05;;;;;;;;;;5031264;28;20063;-74
2022/03/10 09:39:39;;;;;;;69.78;29.27;;;;;;;;;;5034304;28;20053;-74
2022/03/10 09:42:09;;;;;;;71.95;29.98;;;;;;;;;;5035716;28;20108;-75
2022/03/10 09:44:42;;;;;;;74.70;30.02;;;;;;;;;;5033394;28;20563;-74
2022/03/10 09:47:10;;;;;;;74.30;30.42;;;;;;;;;;5035986;28;20102;-73
2022/03/10 09:49:39;;;;;;;75.32;31.35;;;;;;;;;;5032913;28;20051;-74
2022/03/10 09:52:08;;;;;;;74.50;30.98;;;;;;;;;;5035649;28;20136;-74
2022/03/10 09:54:40;;;;;;;82.50;33.53;;;;;;;;;;5033379;28;20044;-78
2022/03/10 09:57:08;;;;;;;76.57;30.08;;;;;;;;;;5039661;28;20084;-74
2022/03/10 09:59:49;;;;;;;75.50;30.38;;;;;;;;;;5033803;28;20477;-76
2022/03/10 10:02:17;;;;;;;77.85;29.02;;;;;;;;;;5033584;28;20144;-76
2022/03/10 10:04:46;;;;;;;74.30;31.50;;;;;;;;;;5037507;28;20091;-74
2022/03/10 10:07:14;;;;;;;83.13;31.10;;;;;;;;;;5035451;28;20057;-75
2022/03/10 10:09:45;;;;;;;79.28;31.10;;;;;;;;;;5039169;28;20544;-73
2022/03/10 10:12:13;;;;;;;81.50;32.53;;;;;;;;;;5038075;28;20045;-73
2022/03/10 10:14:47;;;;;;;79.10;30.23;;;;;;;;;;5037639;28;20040;-76
2022/03/10 10:17:17;;;;;;;82.90;31.30;;;;;;;;;;5036365;28;20543;-76
2022/03/10 10:19:46;;;;;;;71.38;30.05;;;;;;;;;;5033845;28;20045;-76
2022/03/10 10:22:34;;;;;;;83.00;31.05;;;;;;;;;;5031612;28;20044;-73
2022/03/10 10:25:05;;;;;;;79.00;31.08;;;;;;;;;;5035143;28;20049;-75
2022/03/10 10:27:35;;;;;;;72.63;31.07;;;;;;;;;;5035428;28;20060;-75
2022/03/10 10:30:07;;;;;;;70.05;28.23;;;;;;;;;;5032430;28;20326;-76
2022/03/10 10:32:45;;;;;;;77.57;30.80;;;;;;;;;;5033008;28;20045;-75
2022/03/10 10:35:15;;;;;;;79.43;31.02;;;;;;;;;;5028681;28;20100;-75
2022/03/10 10:37:44;;;;;;;75.05;29.83;;;;;;;;;;5028964;28;20044;-75
2022/03/10 10:40:20;;;;;;;76.38;29.48;;;;;;;;;;5034720;28;20045;-75
2022/03/10 10:42:48;;;;;;;76.22;29.73;;;;;;;;;;5035284;28;20063;-75
2022/03/10 10:45:30;;;;;;;82.45;31.48;;;;;;;;;;5035675;28;20550;-75
2022/03/10 10:48:00;;;;;;;68.68;29.10;;;;;;;;;;5033143;28;20057;-75
2022/03/10 10:50:29;;;;;;;76.95;31.02;;;;;;;;;;5034742;28;20517;-74
2022/03/10 10:52:56;;;;;;;76.47;30.25;;;;;;;;;;5033563;28;20052;-75
2022/03/10 10:55:31;;;;;;;75.90;28.85;;;;;;;;;;5036735;28;20507;-76
2022/03/10 10:58:05;;;;;;;78.53;31.02;;;;;;;;;;5035419;28;20056;-76
2022/03/10 11:00:40;;;;;;;78.57;31.20;;;;;;;;;;5040324;28;20420;-76
2022/03/10 11:03:21;;;;;;;72.05;28.17;;;;;;;;;;5032773;28;20199;-75
2022/03/10 11:05:50;;;;;;;74.05;28.30;;;;;;;;;;5030770;28;20033;-75
2022/03/10 11:08:18;;;;;;;66.97;28.17;;;;;;;;;;5030089;28;20114;-76
2022/03/10 11:10:46;;;;;;;72.07;29.52;;;;;;;;;;5030419;28;20059;-75
2022/03/10 11:13:19;;;;;;;74.55;28.10;;;;;;;;;;5030737;28;20057;-75
2022/03/10 11:15:47;;;;;;;75.45;29.17;;;;;;;;;;5031620;28;20469;-75
2022/03/10 11:18:15;;;;;;;76.20;28.77;;;;;;;;;;5032173;28;20155;-75
2022/03/10 11:20:46;;;;;;;76.30;28.52;;;;;;;;;;5028720;28;20049;-75
2022/03/10 11:23:20;;;;;;;75.18;30.73;;;;;;;;;;5028854;28;20144;-72
2022/03/10 11:25:53;;;;;;;76.70;31.40;;;;;;;;;;5027418;28;20493;-73
2022/03/10 11:28:23;;;;;;;66.78;29.00;;;;;;;;;;5028235;28;20056;-76
2022/03/10 11:30:54;;;;;;;78.40;30.75;;;;;;;;;;5030055;28;20554;-75
2022/03/10 11:33:29;;;;;;;78.60;29.17;;;;;;;;;;5030880;28;20097;-75
2022/03/10 11:35:58;;;;;;;82.03;30.73;;;;;;;;;;5032599;28;20506;-75
2022/03/10 11:38:32;;;;;;;69.47;29.85;;;;;;;;;;5029046;28;20129;-75
2022/03/10 11:41:00;;;;;;;81.85;31.08;;;;;;;;;;5031331;28;20059;-76
2022/03/10 11:43:34;;;;;;;79.85;31.13;;;;;;;;;;5030119;28;20048;-76
2022/03/10 11:46:22;;;;;;;79.05;30.67;;;;;;;;;;5029689;28;20057;-76
2022/03/10 11:49:11;;;;;;;68.63;30.70;;;;;;;;;;5028808;28;20109;-76
2022/03/10 11:51:44;;;;;;;74.70;29.15;;;;;;;;;;5028775;28;20084;-76
2022/03/10 11:54:12;;;;;;;;;;;;;;;;;;5025693;28;20048;-76
2022/03/10 11:56:59;;;;;;;74.80;28.52;;;;;;;;;;5030471;28;19932;-77
2022/03/10 11:59:28;;;;;;;88.30;30.77;;;;;;;;;;5029280;28;20086;-76
2022/03/10 12:01:59;;;;;;;65.13;24.48;;;;;;;;;;5031473;28;20525;-76
2022/03/10 12:04:35;;;;;;;63.22;24.48;;;;;;;;;;5025429;28;20073;-76
2022/03/10 12:07:05;;;;;;;67.13;23.83;;;;;;;;;;5028399;28;20049;-76
2022/03/10 12:09:33;;;;;;;60.58;21.65;;;;;;;;;;5025015;28;20053;-76
2022/03/10 12:12:14;;;;;;;58.95;22.73;;;;;;;;;;5036099;28;20147;-76
2022/03/10 12:15:17;;;;;;;54.50;21.33;;;;;;;;;;5035126;28;20053;-77
2022/03/10 12:17:49;;;;;;;55.95;20.95;;;;;;;;;;5025795;28;20072;-74
2022/03/10 12:20:21;;;;;;;50.58;21.58;;;;;;;;;;5032249;28;20048;-73
2022/03/10 12:23:09;;;;;;;62.53;22.52;;;;;;;;;;5032628;28;20111;-73
2022/03/10 12:25:40;;;;;;;63.22;24.77;;;;;;;;;;5032566;28;20079;-74
2022/03/10 12:28:08;;;;;;;59.85;23.65;;;;;;;;;;5033791;28;20139;-74
2022/03/10 12:31:04;;;;;;;66.22;23.60;;;;;;;;;;5030682;28;20063;-73
2022/03/10 12:33:33;;;;;;;61.80;24.67;;;;;;;;;;5033925;28;20048;-73
2022/03/10 12:36:01;;;;;;;57.92;21.77;;;;;;;;;;5030632;28;20095;-73
2022/03/10 12:38:39;;;;;;;55.90;20.92;;;;;;;;;;5031164;28;20057;-73
2022/03/10 12:41:08;;;;;;;56.72;22.20;;;;;;;;;;5027178;28;20089;-73
2022/03/10 12:43:36;;;;;;;64.82;24.55;;;;;;;;;;5031197;28;20049;-73
2022/03/10 12:46:04;;;;;;;57.92;23.17;;;;;;;;;;5035607;28;20485;-74
2022/03/10 12:48:59;;;;;;;52.47;22.35;;;;;;;;;;5031152;28;20084;-76
2022/03/10 12:51:33;;;;;;;50.70;21.58;;;;;;;;;;5023040;28;20630;-77
2022/03/10 12:54:02;;;;;;;55.28;22.40;;;;;;;;;;5022446;28;20081;-74
2022/03/10 12:56:47;;;;;;;53.20;22.00;;;;;;;;;;5022375;28;20041;-75
2022/03/10 12:59:24;;;;;;;53.13;22.10;;;;;;;;;;5027467;28;20053;-75
2022/03/10 13:01:52;;;;;;;49.00;20.77;;;;;;;;;;5028347;28;20060;-76
2022/03/10 13:04:20;;;;;;;57.13;22.45;;;;;;;;;;5022601;28;20064;-77
2022/03/10 13:06:48;;;;;;;58.15;23.45;;;;;;;;;;5025668;28;20541;-76
2022/03/10 13:09:22;;;;;;;54.72;20.50;;;;;;;;;;5028194;28;20417;-76
2022/03/10 13:11:56;;;;;;;48.75;21.25;;;;;;;;;;5025271;28;20065;-76
2022/03/10 13:14:24;;;;;;;49.42;20.40;;;;;;;;;;5026340;28;20087;-77
2022/03/10 13:16:52;;;;;;;49.25;18.70;;;;;;;;;;5029552;28;20064;-77
2022/03/10 13:19:21;;;;;;;40.15;18.38;;;;;;;;;;5034222;28;20056;-76
2022/03/10 13:21:50;;;;;;;46.33;18.50;;;;;;;;;;5033677;28;20083;-77
2022/03/10 13:24:41;;;;;;;44.58;19.23;;;;;;;;;;5030650;28;20136;-77
2022/03/10 13:27:11;;;;;;;49.10;22.30;;;;;;;;;;5030721;28;20068;-77
2022/03/10 13:29:43;;;;;;;46.70;18.70;;;;;;;;;;5029167;28;20061;-77
2022/03/10 13:32:11;;;;;;;45.38;18.65;;;;;;;;;;5031230;28;20064;-77
2022/03/10 13:34:39;;;;;;;40.83;17.52;;;;;;;;;;5033016;28;20049;-78
2022/03/10 13:37:08;;;;;;;53.17;20.25;;;;;;;;;;5035555;28;20434;-72
2022/03/10 13:40:01;;;;;;;41.28;18.80;;;;;;;;;;5028895;28;20619;-73
2022/03/10 13:42:33;;;;;;;43.88;17.40;;;;;;;;;;5033884;28;20485;-77
2022/03/10 13:45:05;;;;;;;37.45;18.45;;;;;;;;;;5033623;28;20058;-72
2022/03/10 13:47:51;;;;;;;42.08;18.05;;;;;;;;;;5038208;28;20069;-76
2022/03/10 13:50:23;;;;;;;42.78;18.00;;;;;;;;;;5035598;28;20059;-75
2022/03/10 13:52:52;;;;;;;48.25;18.55;;;;;;;;;;5033442;28;20412;-75
2022/03/10 13:55:24;;;;;;;45.13;18.60;;;;;;;;;;5034609;28;20043;-77
2022/03/10 13:57:54;;;;;;;40.75;18.02;;;;;;;;;;5035706;28;20507;-76
2022/03/10 14:00:25;;;;;;;35.15;15.82;;;;;;;;;;5033774;28;20049;-73
2022/03/10 14:02:54;;;;;;;39.47;17.02;;;;;;;;;;5036461;28;20050;-74
2022/03/10 14:05:22;;;;;;;43.33;19.35;;;;;;;;;;5037617;28;20102;-73
2022/03/10 14:07:54;;;;;;;36.83;18.88;;;;;;;;;;5037055;28;20514;-73
2022/03/10 14:10:28;;;;;;;36.25;18.45;;;;;;;;;;5039609;28;20115;-76
2022/03/10 14:13:02;;;;;;;36.78;18.27;;;;;;;;;;5037962;28;20580;-76
2022/03/10 14:15:35;;;;;;;48.17;20.20;;;;;;;;;;5035884;28;20079;-73
2022/03/10 14:18:07;;;;;;;45.58;18.50;;;;;;;;;;5036386;28;20059;-73
2022/03/10 14:20:48;;;;;;;37.33;17.90;;;;;;;;;;5036652;28;20127;-73
2022/03/10 14:23:17;;;;;;;39.50;18.33;;;;;;;;;;5035244;28;20056;-75
2022/03/10 14:25:46;;;;;;;44.15;18.75;;;;;;;;;;5032949;28;20049;-74
2022/03/10 14:28:16;;;;;;;35.92;17.02;;;;;;;;;;5033214;28;20053;-76
2022/03/10 14:30:48;;;;;;;39.72;18.08;;;;;;;;;;5035099;28;20401;-74
2022/03/10 14:33:16;;;;;;;44.97;18.35;;;;;;;;;;5040336;28;20061;-74
2022/03/10 14:35:51;;;;;;;41.17;17.98;;;;;;;;;;5037206;28;20360;-72
2022/03/10 14:38:19;;;;;;;37.47;18.50;;;;;;;;;;5031849;28;20053;-73
2022/03/10 14:40:46;;;;;;;44.55;21.20;;;;;;;;;;5036170;28;20057;-77
2022/03/10 14:43:16;;;;;;;43.60;18.45;;;;;;;;;;5035671;28;20136;-76
2022/03/10 14:45:44;;;;;;;40.42;16.50;;;;;;;;;;5034571;28;20152;-72
2022/03/10 14:48:16;;;;;;;43.60;16.52;;;;;;;;;;5032251;28;20488;-74